PILOTS ONLINE: 322    ATC ONLINE: 39

KSTS

Charles M. Schulz Sonoma County Airport

Location

IATA STS
City Santa Rosa
Country  United States
Latitude 38° 30' 32" N
Longitude 122° 48' 46" W
Elevation 128 ft
Type Medium Airport

Map

Weather

METAR
2014/10/23 12:00
KSTS 231200Z AUTO 00000KT 10SM BKN020 12/12 A3001 RMK AO2
TAF
2014/10/23 12:24
TAF KSTS 231122Z 2312/2412 00000KT P6SM BKN020 
     FM231800 VRB03KT P6SM -RA SCT025 OVC050 
     FM240400 VRB03KT P6SM BKN015

Runways

01/19 5002 ft / 100 ft
14/32 5115 ft / 150 ft

Outbound flights

Callsign Flying to Pilot ATD/STD ETA Aircraft

Inbound flights

Callsign Flying from Pilot ATD ETA Aircraft